sensor_id;sensor_type;location;lat;lon;timestamp;P1;durP1;ratioP1;P2;durP2;ratioP2
62268;SDS011;56517;51.634;5.566;2023-05-07T01:02:48;19.55;;;13.02;;
62268;SDS011;56517;51.634;5.566;2023-05-07T01:04:09;24.65;;;13.45;;
62268;SDS011;56517;51.634;5.566;2023-05-07T01:05:30;22.38;;;13.40;;
62268;SDS011;56517;51.634;5.566;2023-05-07T01:06:51;22.83;;;13.55;;
62268;SDS011;56517;51.634;5.566;2023-05-07T01:08:13;21.70;;;12.88;;
62268;SDS011;56517;51.634;5.566;2023-05-07T01:09:35;22.33;;;13.38;;
62268;SDS011;56517;51.634;5.566;2023-05-07T01:10:57;24.50;;;13.73;;
62268;SDS011;56517;51.634;5.566;2023-05-07T01:12:18;17.13;;;12.90;;
62268;SDS011;56517;51.634;5.566;2023-05-07T01:13:39;32.30;;;16.83;;
62268;SDS011;56517;51.634;5.566;2023-05-07T01:15:00;23.98;;;14.20;;
62268;SDS011;56517;51.634;5.566;2023-05-07T01:16:21;22.55;;;14.88;;
62268;SDS011;56517;51.634;5.566;2023-05-07T01:17:42;17.40;;;12.52;;
62268;SDS011;56517;51.634;5.566;2023-05-07T01:19:03;22.17;;;14.05;;
62268;SDS011;56517;51.634;5.566;2023-05-07T01:20:24;29.15;;;15.63;;
62268;SDS011;56517;51.634;5.566;2023-05-07T01:21:46;26.40;;;14.27;;
62268;SDS011;56517;51.634;5.566;2023-05-07T01:23:07;35.40;;;16.55;;
62268;SDS011;56517;51.634;5.566;2023-05-07T01:24:30;34.20;;;16.02;;
62268;SDS011;56517;51.634;5.566;2023-05-07T01:25:54;27.50;;;14.98;;
62268;SDS011;56517;51.634;5.566;2023-05-07T01:27:15;26.33;;;15.05;;
62268;SDS011;56517;51.634;5.566;2023-05-07T01:28:36;24.40;;;14.68;;
62268;SDS011;56517;51.634;5.566;2023-05-07T01:29:56;21.88;;;13.57;;
62268;SDS011;56517;51.634;5.566;2023-05-07T01:31:17;24.42;;;15.02;;
62268;SDS011;56517;51.634;5.566;2023-05-07T01:32:58;25.83;;;15.23;;
62268;SDS011;56517;51.634;5.566;2023-05-07T01:34:19;24.05;;;15.07;;
62268;SDS011;56517;51.634;5.566;2023-05-07T01:37:02;25.45;;;14.77;;
62268;SDS011;56517;51.634;5.566;2023-05-07T01:38:23;23.77;;;14.73;;
62268;SDS011;56517;51.634;5.566;2023-05-07T01:39:45;25.83;;;15.40;;
62268;SDS011;56517;51.634;5.566;2023-05-07T01:41:06;39.80;;;19.13;;
62268;SDS011;56517;51.634;5.566;2023-05-07T01:42:27;25.98;;;15.05;;
62268;SDS011;56517;51.634;5.566;2023-05-07T01:43:49;38.80;;;16.85;;
62268;SDS011;56517;51.634;5.566;2023-05-07T01:45:10;36.58;;;18.10;;
62268;SDS011;56517;51.634;5.566;2023-05-07T01:46:31;26.58;;;15.27;;
62268;SDS011;56517;51.634;5.566;2023-05-07T01:47:53;23.75;;;14.82;;
62268;SDS011;56517;51.634;5.566;2023-05-07T01:49:16;25.30;;;15.30;;
62268;SDS011;56517;51.634;5.566;2023-05-07T01:50:37;34.30;;;17.27;;
62268;SDS011;56517;51.634;5.566;2023-05-07T01:51:58;23.88;;;14.93;;
62268;SDS011;56517;51.634;5.566;2023-05-07T01:53:19;45.53;;;21.23;;
62268;SDS011;56517;51.634;5.566;2023-05-07T01:54:40;36.10;;;18.33;;
62268;SDS011;56517;51.634;5.566;2023-05-07T01:56:00;41.72;;;19.85;;
62268;SDS011;56517;51.634;5.566;2023-05-07T01:57:21;30.02;;;16.10;;
62268;SDS011;56517;51.634;5.566;2023-05-07T01:58:42;24.67;;;15.30;;
62268;SDS011;56517;51.634;5.566;2023-05-07T02:00:03;37.78;;;17.95;;
62268;SDS011;56517;51.634;5.566;2023-05-07T02:02:46;26.95;;;15.70;;
62268;SDS011;56517;51.634;5.566;2023-05-07T02:04:07;23.50;;;16.42;;
62268;SDS011;56517;51.634;5.566;2023-05-07T02:05:28;36.38;;;18.90;;
62268;SDS011;56517;51.634;5.566;2023-05-07T02:06:49;23.92;;;15.68;;
62268;SDS011;56517;51.634;5.566;2023-05-07T02:08:09;35.30;;;17.95;;
62268;SDS011;56517;51.634;5.566;2023-05-07T02:09:30;27.02;;;17.10;;
62268;SDS011;56517;51.634;5.566;2023-05-07T02:10:51;33.38;;;18.63;;
62268;SDS011;56517;51.634;5.566;2023-05-07T02:12:12;33.85;;;18.50;;
62268;SDS011;56517;51.634;5.566;2023-05-07T02:13:33;36.78;;;18.50;;
62268;SDS011;56517;51.634;5.566;2023-05-07T02:14:57;26.88;;;15.45;;
62268;SDS011;56517;51.634;5.566;2023-05-07T02:16:18;28.05;;;16.13;;
62268;SDS011;56517;51.634;5.566;2023-05-07T02:17:57;36.80;;;19.27;;
62268;SDS011;56517;51.634;5.566;2023-05-07T02:19:19;34.28;;;18.73;;
62268;SDS011;56517;51.634;5.566;2023-05-07T02:22:02;32.95;;;17.88;;
62268;SDS011;56517;51.634;5.566;2023-05-07T02:23:23;36.65;;;19.95;;
62268;SDS011;56517;51.634;5.566;2023-05-07T02:24:44;32.58;;;17.67;;
62268;SDS011;56517;51.634;5.566;2023-05-07T02:26:05;32.63;;;18.63;;
62268;SDS011;56517;51.634;5.566;2023-05-07T02:27:26;29.95;;;18.27;;
62268;SDS011;56517;51.634;5.566;2023-05-07T02:28:46;29.73;;;18.90;;
62268;SDS011;56517;51.634;5.566;2023-05-07T02:30:08;32.05;;;19.67;;
62268;SDS011;56517;51.634;5.566;2023-05-07T02:31:29;29.80;;;19.35;;
62268;SDS011;56517;51.634;5.566;2023-05-07T02:32:49;32.13;;;19.27;;
62268;SDS011;56517;51.634;5.566;2023-05-07T02:34:10;40.75;;;20.25;;
62268;SDS011;56517;51.634;5.566;2023-05-07T02:35:31;33.80;;;19.52;;
62268;SDS011;56517;51.634;5.566;2023-05-07T02:36:52;27.73;;;18.08;;
62268;SDS011;56517;51.634;5.566;2023-05-07T02:38:13;35.88;;;19.90;;
62268;SDS011;56517;51.634;5.566;2023-05-07T02:39:36;36.28;;;20.55;;
62268;SDS011;56517;51.634;5.566;2023-05-07T02:40:57;30.97;;;17.80;;
62268;SDS011;56517;51.634;5.566;2023-05-07T02:42:18;39.58;;;21.20;;
62268;SDS011;56517;51.634;5.566;2023-05-07T02:43:39;42.08;;;19.83;;
62268;SDS011;56517;51.634;5.566;2023-05-07T02:45:00;29.80;;;17.33;;
62268;SDS011;56517;51.634;5.566;2023-05-07T02:46:21;29.67;;;18.45;;
62268;SDS011;56517;51.634;5.566;2023-05-07T02:47:42;31.45;;;18.75;;
62268;SDS011;56517;51.634;5.566;2023-05-07T02:49:02;32.25;;;19.17;;
62268;SDS011;56517;51.634;5.566;2023-05-07T02:50:23;30.45;;;17.50;;
62268;SDS011;56517;51.634;5.566;2023-05-07T02:51:45;28.77;;;18.70;;
62268;SDS011;56517;51.634;5.566;2023-05-07T02:53:05;32.08;;;19.13;;
62268;SDS011;56517;51.634;5.566;2023-05-07T02:54:27;33.40;;;20.00;;
62268;SDS011;56517;51.634;5.566;2023-05-07T02:55:48;32.17;;;19.67;;
62268;SDS011;56517;51.634;5.566;2023-05-07T02:57:08;32.85;;;18.60;;
62268;SDS011;56517;51.634;5.566;2023-05-07T02:58:29;30.80;;;18.65;;
62268;SDS011;56517;51.634;5.566;2023-05-07T02:59:50;32.83;;;19.33;;
62268;SDS011;56517;51.634;5.566;2023-05-07T03:01:11;33.35;;;19.10;;
62268;SDS011;56517;51.634;5.566;2023-05-07T03:02:34;36.58;;;20.42;;
62268;SDS011;56517;51.634;5.566;2023-05-07T03:03:55;44.30;;;21.95;;
62268;SDS011;56517;51.634;5.566;2023-05-07T03:05:16;47.67;;;23.10;;
62268;SDS011;56517;51.634;5.566;2023-05-07T03:06:37;37.35;;;21.00;;
62268;SDS011;56517;51.634;5.566;2023-05-07T03:07:58;32.83;;;19.50;;
62268;SDS011;56517;51.634;5.566;2023-05-07T03:09:19;45.63;;;23.98;;
62268;SDS011;56517;51.634;5.566;2023-05-07T03:10:40;43.83;;;22.67;;
62268;SDS011;56517;51.634;5.566;2023-05-07T03:12:01;33.75;;;20.10;;
62268;SDS011;56517;51.634;5.566;2023-05-07T03:13:22;47.53;;;23.15;;
62268;SDS011;56517;51.634;5.566;2023-05-07T03:14:43;35.78;;;21.40;;
62268;SDS011;56517;51.634;5.566;2023-05-07T03:16:04;44.75;;;23.77;;
62268;SDS011;56517;51.634;5.566;2023-05-07T03:17:25;45.47;;;23.60;;
62268;SDS011;56517;51.634;5.566;2023-05-07T03:18:45;39.30;;;22.02;;
62268;SDS011;56517;51.634;5.566;2023-05-07T03:20:06;30.30;;;19.90;;
62268;SDS011;56517;51.634;5.566;2023-05-07T03:21:28;27.50;;;18.87;;
62268;SDS011;56517;51.634;5.566;2023-05-07T03:22:48;45.72;;;23.77;;
62268;SDS011;56517;51.634;5.566;2023-05-07T03:24:09;28.45;;;19.27;;
62268;SDS011;56517;51.634;5.566;2023-05-07T03:25:31;43.00;;;23.88;;
62268;SDS011;56517;51.634;5.566;2023-05-07T03:26:52;44.70;;;23.73;;
62268;SDS011;56517;51.634;5.566;2023-05-07T03:28:13;29.88;;;19.15;;
62268;SDS011;56517;51.634;5.566;2023-05-07T03:29:34;33.95;;;21.55;;
62268;SDS011;56517;51.634;5.566;2023-05-07T03:30:55;49.78;;;23.85;;
62268;SDS011;56517;51.634;5.566;2023-05-07T03:32:15;33.45;;;21.27;;
62268;SDS011;56517;51.634;5.566;2023-05-07T03:33:38;32.72;;;20.08;;
62268;SDS011;56517;51.634;5.566;2023-05-07T03:36:30;46.78;;;24.00;;
62268;SDS011;56517;51.634;5.566;2023-05-07T03:37:51;49.95;;;23.70;;
62268;SDS011;56517;51.634;5.566;2023-05-07T03:39:12;38.60;;;22.10;;
62268;SDS011;56517;51.634;5.566;2023-05-07T03:40:33;35.42;;;20.92;;
62268;SDS011;56517;51.634;5.566;2023-05-07T03:41:53;43.70;;;23.35;;
62268;SDS011;56517;51.634;5.566;2023-05-07T03:43:14;40.88;;;23.02;;
62268;SDS011;56517;51.634;5.566;2023-05-07T03:44:35;35.53;;;21.60;;
62268;SDS011;56517;51.634;5.566;2023-05-07T03:45:59;44.33;;;24.58;;
62268;SDS011;56517;51.634;5.566;2023-05-07T03:47:20;46.05;;;24.25;;
62268;SDS011;56517;51.634;5.566;2023-05-07T03:48:41;44.03;;;23.48;;
62268;SDS011;56517;51.634;5.566;2023-05-07T03:50:02;40.67;;;23.17;;
62268;SDS011;56517;51.634;5.566;2023-05-07T03:51:23;43.70;;;24.38;;
62268;SDS011;56517;51.634;5.566;2023-05-07T03:52:43;45.05;;;23.30;;
62268;SDS011;56517;51.634;5.566;2023-05-07T03:54:05;44.33;;;23.88;;
62268;SDS011;56517;51.634;5.566;2023-05-07T03:55:26;50.10;;;27.15;;
62268;SDS011;56517;51.634;5.566;2023-05-07T03:56:47;48.22;;;23.85;;
62268;SDS011;56517;51.634;5.566;2023-05-07T03:58:08;50.05;;;24.10;;
62268;SDS011;56517;51.634;5.566;2023-05-07T03:59:29;50.40;;;26.67;;
62268;SDS011;56517;51.634;5.566;2023-05-07T04:00:50;44.03;;;24.88;;
62268;SDS011;56517;51.634;5.566;2023-05-07T04:02:10;39.45;;;23.45;;
62268;SDS011;56517;51.634;5.566;2023-05-07T04:03:31;37.58;;;23.90;;
62268;SDS011;56517;51.634;5.566;2023-05-07T04:04:52;38.95;;;24.70;;
62268;SDS011;56517;51.634;5.566;2023-05-07T04:06:15;48.17;;;26.08;;
62268;SDS011;56517;51.634;5.566;2023-05-07T04:07:36;52.50;;;25.45;;
62268;SDS011;56517;51.634;5.566;2023-05-07T04:08:57;54.88;;;27.30;;
62268;SDS011;56517;51.634;5.566;2023-05-07T04:10:18;44.78;;;24.30;;
62268;SDS011;56517;51.634;5.566;2023-05-07T04:11:39;36.53;;;23.23;;
62268;SDS011;56517;51.634;5.566;2023-05-07T04:13:00;49.58;;;25.92;;
62268;SDS011;56517;51.634;5.566;2023-05-07T04:14:21;34.92;;;21.65;;
62268;SDS011;56517;51.634;5.566;2023-05-07T04:15:42;34.78;;;23.45;;
62268;SDS011;56517;51.634;5.566;2023-05-07T04:17:03;38.05;;;23.40;;
62268;SDS011;56517;51.634;5.566;2023-05-07T04:18:24;47.42;;;23.92;;
62268;SDS011;56517;51.634;5.566;2023-05-07T04:19:45;40.80;;;24.35;;
62268;SDS011;56517;51.634;5.566;2023-05-07T04:21:06;35.72;;;23.83;;
62268;SDS011;56517;51.634;5.566;2023-05-07T04:22:34;44.25;;;25.40;;
62268;SDS011;56517;51.634;5.566;2023-05-07T04:23:55;42.17;;;23.95;;
62268;SDS011;56517;51.634;5.566;2023-05-07T04:25:16;42.17;;;25.00;;
62268;SDS011;56517;51.634;5.566;2023-05-07T04:26:37;42.92;;;24.73;;
62268;SDS011;56517;51.634;5.566;2023-05-07T04:27:58;48.70;;;27.02;;
62268;SDS011;56517;51.634;5.566;2023-05-07T04:29:19;46.90;;;26.33;;
62268;SDS011;56517;51.634;5.566;2023-05-07T04:30:40;50.25;;;28.00;;
62268;SDS011;56517;51.634;5.566;2023-05-07T04:32:01;56.22;;;28.55;;
62268;SDS011;56517;51.634;5.566;2023-05-07T04:33:22;57.25;;;28.75;;
62268;SDS011;56517;51.634;5.566;2023-05-07T04:34:43;45.03;;;24.80;;
62268;SDS011;56517;51.634;5.566;2023-05-07T04:36:04;48.45;;;27.00;;
62268;SDS011;56517;51.634;5.566;2023-05-07T04:37:25;58.10;;;29.17;;
62268;SDS011;56517;51.634;5.566;2023-05-07T04:38:47;44.72;;;25.77;;
62268;SDS011;56517;51.634;5.566;2023-05-07T04:40:07;45.15;;;23.95;;
62268;SDS011;56517;51.634;5.566;2023-05-07T04:41:28;49.53;;;26.70;;
62268;SDS011;56517;51.634;5.566;2023-05-07T04:42:49;46.40;;;26.88;;
62268;SDS011;56517;51.634;5.566;2023-05-07T04:44:10;51.15;;;27.42;;
62268;SDS011;56517;51.634;5.566;2023-05-07T04:45:31;50.83;;;27.80;;
62268;SDS011;56517;51.634;5.566;2023-05-07T04:46:52;49.00;;;27.65;;
62268;SDS011;56517;51.634;5.566;2023-05-07T04:48:13;51.30;;;27.65;;
62268;SDS011;56517;51.634;5.566;2023-05-07T04:49:36;52.80;;;28.92;;
62268;SDS011;56517;51.634;5.566;2023-05-07T04:50:57;50.90;;;29.92;;
62268;SDS011;56517;51.634;5.566;2023-05-07T04:52:18;51.13;;;29.35;;
62268;SDS011;56517;51.634;5.566;2023-05-07T04:53:39;49.63;;;27.77;;
62268;SDS011;56517;51.634;5.566;2023-05-07T04:55:00;52.38;;;32.03;;
62268;SDS011;56517;51.634;5.566;2023-05-07T04:56:21;46.80;;;28.77;;
62268;SDS011;56517;51.634;5.566;2023-05-07T04:57:42;53.58;;;30.02;;
62268;SDS011;56517;51.634;5.566;2023-05-07T04:59:03;58.60;;;30.48;;
62268;SDS011;56517;51.634;5.566;2023-05-07T05:00:24;66.93;;;32.67;;
62268;SDS011;56517;51.634;5.566;2023-05-07T05:01:45;53.92;;;30.40;;
62268;SDS011;56517;51.634;5.566;2023-05-07T05:03:06;61.53;;;33.47;;
62268;SDS011;56517;51.634;5.566;2023-05-07T05:04:27;65.13;;;33.13;;
62268;SDS011;56517;51.634;5.566;2023-05-07T05:05:49;64.13;;;33.70;;
62268;SDS011;56517;51.634;5.566;2023-05-07T05:07:09;65.70;;;34.15;;
62268;SDS011;56517;51.634;5.566;2023-05-07T05:08:30;68.50;;;33.20;;
62268;SDS011;56517;51.634;5.566;2023-05-07T05:09:51;46.60;;;30.83;;
62268;SDS011;56517;51.634;5.566;2023-05-07T05:11:12;61.63;;;33.38;;
62268;SDS011;56517;51.634;5.566;2023-05-07T05:12:33;62.15;;;33.38;;
62268;SDS011;56517;51.634;5.566;2023-05-07T05:13:54;65.03;;;35.63;;
62268;SDS011;56517;51.634;5.566;2023-05-07T05:15:15;62.30;;;34.55;;
62268;SDS011;56517;51.634;5.566;2023-05-07T05:16:36;64.93;;;34.10;;
62268;SDS011;56517;51.634;5.566;2023-05-07T05:17:57;65.97;;;34.08;;
62268;SDS011;56517;51.634;5.566;2023-05-07T05:19:18;48.17;;;30.25;;
62268;SDS011;56517;51.634;5.566;2023-05-07T05:20:39;64.10;;;32.95;;
62268;SDS011;56517;51.634;5.566;2023-05-07T05:21:59;49.17;;;30.02;;
62268;SDS011;56517;51.634;5.566;2023-05-07T05:23:21;56.33;;;32.45;;
62268;SDS011;56517;51.634;5.566;2023-05-07T05:24:42;59.20;;;32.47;;
62268;SDS011;56517;51.634;5.566;2023-05-07T05:26:03;48.83;;;30.25;;
62268;SDS011;56517;51.634;5.566;2023-05-07T05:27:24;52.40;;;30.10;;
62268;SDS011;56517;51.634;5.566;2023-05-07T05:28:45;53.28;;;32.55;;
62268;SDS011;56517;51.634;5.566;2023-05-07T05:30:06;47.78;;;30.20;;
62268;SDS011;56517;51.634;5.566;2023-05-07T05:31:27;48.85;;;30.95;;
62268;SDS011;56517;51.634;5.566;2023-05-07T05:32:48;48.35;;;32.05;;
62268;SDS011;56517;51.634;5.566;2023-05-07T05:34:09;51.63;;;32.15;;
62268;SDS011;56517;51.634;5.566;2023-05-07T05:35:30;49.80;;;30.55;;
62268;SDS011;56517;51.634;5.566;2023-05-07T05:36:51;49.35;;;30.80;;
62268;SDS011;56517;51.634;5.566;2023-05-07T05:38:12;55.42;;;34.25;;
62268;SDS011;56517;51.634;5.566;2023-05-07T05:39:33;48.85;;;30.88;;
62268;SDS011;56517;51.634;5.566;2023-05-07T05:40:54;52.80;;;32.17;;
62268;SDS011;56517;51.634;5.566;2023-05-07T05:42:15;59.00;;;33.40;;
62268;SDS011;56517;51.634;5.566;2023-05-07T05:43:36;58.05;;;33.17;;
62268;SDS011;56517;51.634;5.566;2023-05-07T05:44:57;69.78;;;36.65;;
62268;SDS011;56517;51.634;5.566;2023-05-07T05:46:17;65.68;;;35.13;;
62268;SDS011;56517;51.634;5.566;2023-05-07T05:47:38;60.60;;;35.00;;
62268;SDS011;56517;51.634;5.566;2023-05-07T05:49:00;68.68;;;34.33;;
62268;SDS011;56517;51.634;5.566;2023-05-07T05:50:21;63.40;;;33.53;;
62268;SDS011;56517;51.634;5.566;2023-05-07T05:51:42;60.42;;;32.95;;
62268;SDS011;56517;51.634;5.566;2023-05-07T05:53:03;53.28;;;32.53;;
62268;SDS011;56517;51.634;5.566;2023-05-07T05:54:24;61.58;;;33.60;;
62268;SDS011;56517;51.634;5.566;2023-05-07T05:55:45;55.85;;;32.10;;
62268;SDS011;56517;51.634;5.566;2023-05-07T05:57:06;66.63;;;32.13;;
62268;SDS011;56517;51.634;5.566;2023-05-07T05:58:27;58.42;;;33.17;;
62268;SDS011;56517;51.634;5.566;2023-05-07T05:59:48;59.60;;;33.45;;
62268;SDS011;56517;51.634;5.566;2023-05-07T06:01:08;65.63;;;35.50;;
62268;SDS011;56517;51.634;5.566;2023-05-07T06:02:30;62.43;;;33.87;;
62268;SDS011;56517;51.634;5.566;2023-05-07T06:03:51;55.45;;;32.10;;
62268;SDS011;56517;51.634;5.566;2023-05-07T06:05:12;67.03;;;36.42;;
62268;SDS011;56517;51.634;5.566;2023-05-07T06:06:33;53.47;;;31.40;;
62268;SDS011;56517;51.634;5.566;2023-05-07T06:07:54;49.83;;;30.90;;
62268;SDS011;56517;51.634;5.566;2023-05-07T06:09:15;58.63;;;32.90;;
62268;SDS011;56517;51.634;5.566;2023-05-07T06:10:36;51.53;;;30.17;;
62268;SDS011;56517;51.634;5.566;2023-05-07T06:11:57;55.42;;;32.15;;
62268;SDS011;56517;51.634;5.566;2023-05-07T06:13:18;51.63;;;31.48;;
62268;SDS011;56517;51.634;5.566;2023-05-07T06:14:39;51.00;;;30.20;;
62268;SDS011;56517;51.634;5.566;2023-05-07T06:16:01;59.08;;;33.25;;
62268;SDS011;56517;51.634;5.566;2023-05-07T06:17:22;51.90;;;29.15;;
62268;SDS011;56517;51.634;5.566;2023-05-07T06:18:43;60.67;;;32.15;;
62268;SDS011;56517;51.634;5.566;2023-05-07T06:20:04;52.05;;;30.23;;
62268;SDS011;56517;51.634;5.566;2023-05-07T06:21:25;52.58;;;30.50;;
62268;SDS011;56517;51.634;5.566;2023-05-07T06:22:46;43.97;;;27.75;;
62268;SDS011;56517;51.634;5.566;2023-05-07T06:24:06;45.10;;;28.08;;
62268;SDS011;56517;51.634;5.566;2023-05-07T06:25:27;41.53;;;26.95;;
62268;SDS011;56517;51.634;5.566;2023-05-07T06:26:48;47.83;;;27.90;;
62268;SDS011;56517;51.634;5.566;2023-05-07T06:28:09;50.58;;;30.65;;
62268;SDS011;56517;51.634;5.566;2023-05-07T06:30:53;41.83;;;25.53;;
62268;SDS011;56517;51.634;5.566;2023-05-07T06:32:14;56.42;;;30.05;;
62268;SDS011;56517;51.634;5.566;2023-05-07T06:33:35;48.00;;;29.30;;
62268;SDS011;56517;51.634;5.566;2023-05-07T06:34:56;46.40;;;27.25;;
62268;SDS011;56517;51.634;5.566;2023-05-07T06:36:17;53.33;;;29.23;;
62268;SDS011;56517;51.634;5.566;2023-05-07T06:37:38;45.97;;;26.92;;
62268;SDS011;56517;51.634;5.566;2023-05-07T06:39:00;45.22;;;26.42;;
62268;SDS011;56517;51.634;5.566;2023-05-07T06:40:21;48.80;;;27.58;;
62268;SDS011;56517;51.634;5.566;2023-05-07T06:41:41;44.20;;;26.77;;
62268;SDS011;56517;51.634;5.566;2023-05-07T06:43:02;50.72;;;27.13;;
62268;SDS011;56517;51.634;5.566;2023-05-07T06:44:23;49.50;;;29.88;;
62268;SDS011;56517;51.634;5.566;2023-05-07T06:45:44;42.13;;;26.70;;
62268;SDS011;56517;51.634;5.566;2023-05-07T06:47:05;41.67;;;26.77;;
62268;SDS011;56517;51.634;5.566;2023-05-07T06:48:26;47.80;;;28.25;;
62268;SDS011;56517;51.634;5.566;2023-05-07T06:49:47;44.72;;;29.33;;
62268;SDS011;56517;51.634;5.566;2023-05-07T06:51:08;44.38;;;27.67;;
62268;SDS011;56517;51.634;5.566;2023-05-07T06:52:28;35.78;;;24.90;;
62268;SDS011;56517;51.634;5.566;2023-05-07T06:53:49;43.38;;;25.67;;
62268;SDS011;56517;51.634;5.566;2023-05-07T06:55:10;43.50;;;26.15;;
62268;SDS011;56517;51.634;5.566;2023-05-07T06:56:32;40.47;;;25.50;;
62268;SDS011;56517;51.634;5.566;2023-05-07T06:57:52;39.80;;;25.25;;
62268;SDS011;56517;51.634;5.566;2023-05-07T06:59:13;41.85;;;25.42;;
62268;SDS011;56517;51.634;5.566;2023-05-07T07:00:34;40.70;;;26.95;;
62268;SDS011;56517;51.634;5.566;2023-05-07T07:01:55;39.97;;;25.05;;
62268;SDS011;56517;51.634;5.566;2023-05-07T07:03:16;51.30;;;27.30;;
62268;SDS011;56517;51.634;5.566;2023-05-07T07:04:37;43.45;;;26.88;;
62268;SDS011;56517;51.634;5.566;2023-05-07T07:05:58;44.40;;;26.45;;
62268;SDS011;56517;51.634;5.566;2023-05-07T07:07:19;40.35;;;24.45;;
62268;SDS011;56517;51.634;5.566;2023-05-07T07:08:40;40.55;;;25.15;;
62268;SDS011;56517;51.634;5.566;2023-05-07T07:10:01;34.05;;;24.25;;
62268;SDS011;56517;51.634;5.566;2023-05-07T07:11:24;36.08;;;24.90;;
62268;SDS011;56517;51.634;5.566;2023-05-07T07:12:45;35.53;;;25.15;;
62268;SDS011;56517;51.634;5.566;2023-05-07T07:14:06;40.83;;;23.70;;
62268;SDS011;56517;51.634;5.566;2023-05-07T07:15:27;37.85;;;23.15;;
62268;SDS011;56517;51.634;5.566;2023-05-07T07:16:48;32.88;;;23.00;;
62268;SDS011;56517;51.634;5.566;2023-05-07T07:18:09;40.90;;;23.88;;
62268;SDS011;56517;51.634;5.566;2023-05-07T07:19:29;35.70;;;23.80;;
62268;SDS011;56517;51.634;5.566;2023-05-07T07:20:50;40.10;;;24.95;;
62268;SDS011;56517;51.634;5.566;2023-05-07T07:22:11;45.28;;;26.20;;
62268;SDS011;56517;51.634;5.566;2023-05-07T07:23:32;36.10;;;23.77;;
62268;SDS011;56517;51.634;5.566;2023-05-07T07:24:53;36.72;;;24.08;;
62268;SDS011;56517;51.634;5.566;2023-05-07T07:26:14;45.92;;;26.48;;
62268;SDS011;56517;51.634;5.566;2023-05-07T07:27:35;45.08;;;25.92;;
62268;SDS011;56517;51.634;5.566;2023-05-07T07:28:56;37.83;;;23.15;;
62268;SDS011;56517;51.634;5.566;2023-05-07T07:30:17;42.88;;;26.50;;
62268;SDS011;56517;51.634;5.566;2023-05-07T07:31:38;37.00;;;24.45;;
62268;SDS011;56517;51.634;5.566;2023-05-07T07:32:59;35.38;;;22.98;;
62268;SDS011;56517;51.634;5.566;2023-05-07T07:34:23;42.15;;;24.70;;
62268;SDS011;56517;51.634;5.566;2023-05-07T07:35:44;35.35;;;23.83;;
62268;SDS011;56517;51.634;5.566;2023-05-07T07:37:05;39.20;;;23.58;;
62268;SDS011;56517;51.634;5.566;2023-05-07T07:38:26;37.53;;;22.90;;
62268;SDS011;56517;51.634;5.566;2023-05-07T07:39:47;43.85;;;24.45;;
62268;SDS011;56517;51.634;5.566;2023-05-07T07:41:08;36.20;;;22.75;;
62268;SDS011;56517;51.634;5.566;2023-05-07T07:42:29;31.90;;;22.55;;
62268;SDS011;56517;51.634;5.566;2023-05-07T07:43:50;34.00;;;22.00;;
62268;SDS011;56517;51.634;5.566;2023-05-07T07:45:11;38.20;;;22.75;;
62268;SDS011;56517;51.634;5.566;2023-05-07T07:46:33;37.30;;;21.33;;
62268;SDS011;56517;51.634;5.566;2023-05-07T07:47:53;40.55;;;24.35;;
62268;SDS011;56517;51.634;5.566;2023-05-07T07:49:14;40.22;;;24.15;;
62268;SDS011;56517;51.634;5.566;2023-05-07T07:50:35;39.33;;;24.17;;
62268;SDS011;56517;51.634;5.566;2023-05-07T07:51:56;37.17;;;23.55;;
62268;SDS011;56517;51.634;5.566;2023-05-07T07:53:19;35.78;;;22.02;;
62268;SDS011;56517;51.634;5.566;2023-05-07T07:54:40;34.95;;;22.30;;
62268;SDS011;56517;51.634;5.566;2023-05-07T07:56:01;36.33;;;24.08;;
62268;SDS011;56517;51.634;5.566;2023-05-07T07:57:22;38.47;;;23.73;;
62268;SDS011;56517;51.634;5.566;2023-05-07T07:58:43;35.03;;;22.92;;
62268;SDS011;56517;51.634;5.566;2023-05-07T08:00:04;33.50;;;22.45;;
62268;SDS011;56517;51.634;5.566;2023-05-07T08:01:26;33.72;;;21.50;;
62268;SDS011;56517;51.634;5.566;2023-05-07T08:02:47;36.28;;;22.92;;
62268;SDS011;56517;51.634;5.566;2023-05-07T08:04:08;37.20;;;24.08;;
62268;SDS011;56517;51.634;5.566;2023-05-07T08:05:29;30.70;;;21.95;;
62268;SDS011;56517;51.634;5.566;2023-05-07T08:06:50;32.92;;;22.67;;
62268;SDS011;56517;51.634;5.566;2023-05-07T08:08:11;32.38;;;22.90;;
62268;SDS011;56517;51.634;5.566;2023-05-07T08:09:32;33.92;;;23.40;;
62268;SDS011;56517;51.634;5.566;2023-05-07T08:10:53;30.08;;;21.65;;
62268;SDS011;56517;51.634;5.566;2023-05-07T08:12:14;34.60;;;24.02;;
62268;SDS011;56517;51.634;5.566;2023-05-07T08:13:35;38.65;;;24.58;;
62268;SDS011;56517;51.634;5.566;2023-05-07T08:14:56;36.47;;;23.95;;
62268;SDS011;56517;51.634;5.566;2023-05-07T08:16:17;37.30;;;23.58;;
62268;SDS011;56517;51.634;5.566;2023-05-07T08:17:38;37.30;;;23.60;;
62268;SDS011;56517;51.634;5.566;2023-05-07T08:18:59;47.33;;;24.55;;
62268;SDS011;56517;51.634;5.566;2023-05-07T08:20:20;38.55;;;22.70;;
62268;SDS011;56517;51.634;5.566;2023-05-07T08:21:41;37.08;;;22.45;;
62268;SDS011;56517;51.634;5.566;2023-05-07T08:23:02;31.73;;;22.05;;
62268;SDS011;56517;51.634;5.566;2023-05-07T08:24:22;30.70;;;21.33;;
62268;SDS011;56517;51.634;5.566;2023-05-07T08:25:43;30.90;;;20.80;;
62268;SDS011;56517;51.634;5.566;2023-05-07T08:27:04;33.10;;;21.13;;
62268;SDS011;56517;51.634;5.566;2023-05-07T08:28:25;34.20;;;22.25;;
62268;SDS011;56517;51.634;5.566;2023-05-07T08:29:46;38.63;;;23.15;;
62268;SDS011;56517;51.634;5.566;2023-05-07T08:32:29;28.42;;;20.08;;
62268;SDS011;56517;51.634;5.566;2023-05-07T08:33:50;35.42;;;21.45;;
62268;SDS011;56517;51.634;5.566;2023-05-07T08:35:11;25.25;;;19.63;;
62268;SDS011;56517;51.634;5.566;2023-05-07T08:36:31;35.03;;;22.00;;
62268;SDS011;56517;51.634;5.566;2023-05-07T08:37:53;28.27;;;20.83;;
62268;SDS011;56517;51.634;5.566;2023-05-07T08:39:16;35.45;;;21.15;;
62268;SDS011;56517;51.634;5.566;2023-05-07T08:40:38;29.92;;;21.63;;
62268;SDS011;56517;51.634;5.566;2023-05-07T08:43:20;41.42;;;21.60;;
62268;SDS011;56517;51.634;5.566;2023-05-07T08:44:42;36.47;;;22.38;;
62268;SDS011;56517;51.634;5.566;2023-05-07T08:46:06;26.95;;;20.60;;
62268;SDS011;56517;51.634;5.566;2023-05-07T08:47:29;29.02;;;19.38;;
62268;SDS011;56517;51.634;5.566;2023-05-07T08:48:53;29.27;;;18.58;;
62268;SDS011;56517;51.634;5.566;2023-05-07T08:50:13;29.17;;;19.83;;
62268;SDS011;56517;51.634;5.566;2023-05-07T08:51:35;29.05;;;18.88;;
62268;SDS011;56517;51.634;5.566;2023-05-07T08:52:56;29.98;;;18.40;;
62268;SDS011;56517;51.634;5.566;2023-05-07T08:54:17;27.52;;;18.85;;
62268;SDS011;56517;51.634;5.566;2023-05-07T08:55:40;30.55;;;18.73;;
62268;SDS011;56517;51.634;5.566;2023-05-07T08:57:01;29.17;;;20.17;;
62268;SDS011;56517;51.634;5.566;2023-05-07T08:58:22;27.60;;;17.42;;
62268;SDS011;56517;51.634;5.566;2023-05-07T08:59:42;23.52;;;17.52;;
62268;SDS011;56517;51.634;5.566;2023-05-07T09:01:07;28.33;;;17.50;;
62268;SDS011;56517;51.634;5.566;2023-05-07T09:02:28;26.85;;;17.95;;
62268;SDS011;56517;51.634;5.566;2023-05-07T09:03:49;24.02;;;17.17;;
62268;SDS011;56517;51.634;5.566;2023-05-07T09:05:10;23.70;;;16.95;;
62268;SDS011;56517;51.634;5.566;2023-05-07T09:06:31;28.92;;;17.80;;